createdAt,value
2019-04-30T00:00:34.786Z,101169.97
2019-04-30T00:03:19.527Z,101158.23
2019-04-30T00:05:49.414Z,101162.61
2019-04-30T00:08:16.021Z,101159.03
2019-04-30T00:10:43.114Z,101162.80
2019-04-30T00:13:10.506Z,101158.57
2019-04-30T00:15:39.256Z,101161.52
2019-04-30T00:18:08.252Z,101162.16
2019-04-30T00:20:38.644Z,101159.28
2019-04-30T00:23:05.183Z,101156.61
2019-04-30T00:25:31.988Z,101158.81
2019-04-30T00:28:00.366Z,101157.00
2019-04-30T00:30:27.895Z,101157.42
2019-04-30T00:32:55.681Z,101155.80
2019-04-30T00:35:23.141Z,101154.83
2019-04-30T00:37:52.063Z,101160.60
2019-04-30T00:40:21.690Z,101157.84
2019-04-30T00:42:47.576Z,101153.91
2019-04-30T00:45:15.492Z,101157.80
2019-04-30T00:47:44.628Z,101159.53
2019-04-30T00:50:11.734Z,101154.83
2019-04-30T00:52:38.821Z,101158.08
2019-04-30T00:55:09.082Z,101152.83
2019-04-30T00:57:37.369Z,101157.03
2019-04-30T01:00:05.129Z,101163.28
2019-04-30T01:02:35.763Z,101157.12
2019-04-30T01:05:11.305Z,101157.28
2019-04-30T01:07:40.047Z,101154.75
2019-04-30T01:10:06.779Z,101157.33
2019-04-30T01:12:36.989Z,101155.55
2019-04-30T01:15:06.399Z,101151.92
2019-04-30T01:17:31.836Z,101150.05
2019-04-30T01:19:59.254Z,101151.25
2019-04-30T01:22:29.210Z,101146.63
2019-04-30T01:24:54.826Z,101148.98
2019-04-30T01:27:21.750Z,101146.16
2019-04-30T01:29:48.903Z,101146.83
2019-04-30T01:32:19.299Z,101147.72
2019-04-30T01:34:50.029Z,101151.73
2019-04-30T01:37:13.627Z,101150.47
2019-04-30T01:39:40.460Z,101151.13
2019-04-30T01:42:10.998Z,101146.88
2019-04-30T01:44:35.887Z,101152.25
2019-04-30T01:47:03.365Z,101151.22
2019-04-30T01:49:41.703Z,101152.19
2019-04-30T01:52:01.002Z,101151.48
2019-04-30T01:54:29.135Z,101151.54
2019-04-30T01:56:59.416Z,101141.18
2019-04-30T01:59:29.131Z,101147.97
2019-04-30T02:01:56.339Z,101156.42
2019-04-30T02:04:23.211Z,101152.25
2019-04-30T02:06:51.618Z,101155.27
2019-04-30T02:09:18.936Z,101159.30
2019-04-30T02:11:48.789Z,101155.21
2019-04-30T02:14:15.674Z,101152.05
2019-04-30T02:16:42.581Z,101153.84
2019-04-30T02:19:09.550Z,101155.61
2019-04-30T02:21:36.163Z,101158.36
2019-04-30T02:24:03.216Z,101157.23
2019-04-30T02:26:30.163Z,101149.98
2019-04-30T02:28:57.063Z,101159.08
2019-04-30T02:31:24.048Z,101154.30
2019-04-30T02:33:53.080Z,101149.13
2019-04-30T02:36:40.028Z,101160.27
2019-04-30T02:39:05.817Z,101157.81
2019-04-30T02:41:33.060Z,101158.03
2019-04-30T02:44:01.521Z,101165.17
2019-04-30T02:46:32.209Z,101162.63
2019-04-30T02:48:59.789Z,101162.22
2019-04-30T02:51:29.942Z,101155.58
2019-04-30T02:54:20.293Z,101156.02
2019-04-30T02:56:50.811Z,101148.21
2019-04-30T02:59:20.084Z,101151.01
2019-04-30T03:01:46.691Z,101152.78
2019-04-30T03:04:13.334Z,101154.86
2019-04-30T03:06:40.698Z,101157.55
2019-04-30T03:09:10.169Z,101149.09
2019-04-30T03:11:36.723Z,101152.42
2019-04-30T03:14:03.877Z,101155.58
2019-04-30T03:16:52.611Z,101157.78
2019-04-30T03:19:20.298Z,101159.82
2019-04-30T03:21:50.190Z,101158.23
2019-04-30T03:24:19.993Z,101159.57
2019-04-30T03:26:49.692Z,101160.70
2019-04-30T03:29:16.091Z,101158.52
2019-04-30T03:31:45.266Z,101162.68
2019-04-30T03:34:18.316Z,101158.44
2019-04-30T03:36:40.747Z,101159.66
2019-04-30T03:39:10.349Z,101161.30
2019-04-30T03:41:36.674Z,101160.47
2019-04-30T03:44:17.115Z,101163.40
2019-04-30T03:46:32.780Z,101157.69
2019-04-30T03:49:00.222Z,101163.50
2019-04-30T03:51:29.782Z,101165.57
2019-04-30T03:53:56.300Z,101162.19
2019-04-30T03:56:23.203Z,101159.33
2019-04-30T03:58:50.399Z,101155.41
2019-04-30T04:01:29.429Z,101154.83
2019-04-30T04:04:15.967Z,101166.28
2019-04-30T04:06:50.349Z,101164.42
2019-04-30T04:09:31.028Z,101166.08
2019-04-30T04:11:59.950Z,101167.80
2019-04-30T04:14:29.644Z,101155.74
2019-04-30T04:16:56.121Z,101168.03
2019-04-30T04:19:23.079Z,101164.31
2019-04-30T04:21:50.906Z,101167.29
2019-04-30T04:24:20.210Z,101163.44
2019-04-30T04:26:49.886Z,101167.56
2019-04-30T04:29:15.983Z,101167.22
2019-04-30T04:31:43.133Z,101161.79
2019-04-30T04:34:10.011Z,101162.46
2019-04-30T04:36:36.933Z,101165.91
2019-04-30T04:39:05.081Z,101163.59
2019-04-30T04:41:31.892Z,101170.78
2019-04-30T04:44:00.114Z,101161.91
2019-04-30T04:46:30.465Z,101169.94
2019-04-30T04:48:56.023Z,101167.89
2019-04-30T04:51:34.466Z,101162.34
2019-04-30T04:53:51.710Z,101161.55
2019-04-30T04:56:19.192Z,101161.97
2019-04-30T04:58:46.147Z,101154.64
2019-04-30T05:01:13.344Z,101160.79
2019-04-30T05:03:40.397Z,101164.62
2019-04-30T05:06:11.361Z,101168.77
2019-04-30T05:08:36.132Z,101160.47
2019-04-30T05:11:03.300Z,101165.91
2019-04-30T05:13:30.631Z,101167.41
2019-04-30T05:15:59.519Z,101167.39
2019-04-30T05:18:26.471Z,101170.92
2019-04-30T05:20:53.249Z,101174.02
2019-04-30T05:23:21.799Z,101172.16
2019-04-30T05:25:49.157Z,101169.31
2019-04-30T05:28:16.302Z,101164.69
2019-04-30T05:30:43.369Z,101167.41
2019-04-30T05:33:10.191Z,101168.19
2019-04-30T05:35:38.733Z,101169.73
2019-04-30T05:38:05.723Z,101171.39
2019-04-30T05:40:32.976Z,101179.55
2019-04-30T05:43:00.373Z,101165.67
2019-04-30T05:45:29.018Z,101159.81
2019-04-30T05:47:56.176Z,101165.19
2019-04-30T05:50:23.011Z,101165.41
2019-04-30T05:52:50.940Z,101168.30
2019-04-30T05:55:19.604Z,101168.09
2019-04-30T05:57:53.879Z,101165.25
2019-04-30T06:00:15.522Z,101163.95
2019-04-30T06:02:42.321Z,101167.73
2019-04-30T06:05:10.079Z,101168.87
2019-04-30T06:07:39.306Z,101179.89
2019-04-30T06:10:09.270Z,101181.48
2019-04-30T06:12:54.316Z,101184.58
2019-04-30T06:15:23.227Z,101176.88
2019-04-30T06:18:05.213Z,101184.48
2019-04-30T06:20:24.246Z,101181.70
2019-04-30T06:22:52.257Z,101182.32
2019-04-30T06:25:28.320Z,101179.70
2019-04-30T06:27:48.816Z,101187.42
2019-04-30T06:30:15.970Z,101183.73
2019-04-30T06:32:44.406Z,101184.12
2019-04-30T06:35:11.582Z,101179.54
2019-04-30T06:37:39.101Z,101185.56
2019-04-30T06:40:06.799Z,101182.36
2019-04-30T06:42:34.439Z,101183.06
2019-04-30T06:45:01.492Z,101186.41
2019-04-30T06:47:33.134Z,101182.56
2019-04-30T06:50:01.293Z,101174.92
2019-04-30T06:52:29.346Z,101184.44
2019-04-30T06:54:56.147Z,101179.27
2019-04-30T06:57:23.018Z,101178.71
2019-04-30T06:59:51.578Z,101176.70
2019-04-30T07:02:19.676Z,101178.94
2019-04-30T07:04:49.179Z,101172.84
2019-04-30T07:07:21.399Z,101168.77
2019-04-30T07:09:54.798Z,101174.78
2019-04-30T07:12:25.603Z,101178.18
2019-04-30T07:14:49.429Z,101176.30
2019-04-30T07:17:16.361Z,101179.30
2019-04-30T07:19:53.177Z,101178.48
2019-04-30T07:22:11.847Z,101175.59
2019-04-30T07:24:39.410Z,101166.08
2019-04-30T07:27:08.999Z,101171.27
2019-04-30T07:29:36.213Z,101170.34
2019-04-30T07:32:03.162Z,101168.90
2019-04-30T07:34:36.647Z,101164.94
2019-04-30T07:37:11.919Z,101166.74
2019-04-30T07:39:31.207Z,101172.80
2019-04-30T07:41:59.806Z,101175.16
2019-04-30T07:44:33.662Z,101163.88
2019-04-30T07:46:54.841Z,101167.03
2019-04-30T07:49:21.713Z,101161.83
2019-04-30T07:51:51.141Z,101163.58
2019-04-30T07:54:18.967Z,101168.89
2019-04-30T07:56:45.797Z,101166.45
2019-04-30T07:59:12.795Z,101154.08
2019-04-30T08:02:00.213Z,101161.16
2019-04-30T08:04:25.899Z,101154.32
2019-04-30T08:06:52.921Z,101154.34
2019-04-30T08:09:22.246Z,101150.61
2019-04-30T08:11:49.136Z,101148.23
2019-04-30T08:14:15.835Z,101143.58
2019-04-30T08:16:42.331Z,101144.20
2019-04-30T08:19:09.673Z,101143.68
2019-04-30T08:21:38.615Z,101152.72
2019-04-30T08:24:05.675Z,101148.09
2019-04-30T08:26:32.730Z,101145.27
2019-04-30T08:28:59.891Z,101142.97
2019-04-30T08:31:26.759Z,101143.88
2019-04-30T08:33:53.640Z,101141.88
2019-04-30T08:36:20.328Z,101144.27
2019-04-30T08:38:47.071Z,101140.33
2019-04-30T08:41:13.694Z,101142.25
2019-04-30T08:43:40.357Z,101143.91
2019-04-30T08:46:08.917Z,101145.89
2019-04-30T08:48:47.821Z,101140.20
2019-04-30T08:51:04.229Z,101139.95
2019-04-30T08:53:33.748Z,101136.25
2019-04-30T08:55:59.688Z,101138.84
2019-04-30T08:58:29.023Z,101140.88
2019-04-30T09:00:55.432Z,101143.02
2019-04-30T09:03:23.356Z,101138.98
2019-04-30T09:05:52.682Z,101136.77
2019-04-30T09:08:19.673Z,101139.91
2019-04-30T09:10:46.376Z,101133.53
2019-04-30T09:13:13.302Z,101140.03
2019-04-30T09:15:40.348Z,101141.97
2019-04-30T09:18:10.238Z,101134.20
2019-04-30T09:20:35.879Z,101130.61
2019-04-30T09:23:02.435Z,101122.38
2019-04-30T09:25:29.366Z,101121.89
2019-04-30T09:27:56.146Z,101129.59
2019-04-30T09:30:22.876Z,101120.41
2019-04-30T09:32:50.158Z,101120.08
2019-04-30T09:35:16.883Z,101113.61
2019-04-30T09:37:43.784Z,101111.51
2019-04-30T09:40:17.976Z,101115.22
2019-04-30T09:42:40.664Z,101115.70
2019-04-30T09:45:08.800Z,101108.31
2019-04-30T09:47:37.303Z,101108.50
2019-04-30T09:50:04.456Z,101107.22
2019-04-30T09:52:31.576Z,101115.07
2019-04-30T09:54:59.524Z,101097.81
2019-04-30T09:57:28.953Z,101093.09
2019-04-30T09:59:55.715Z,101095.68
2019-04-30T10:02:24.402Z,101094.56
2019-04-30T10:04:51.619Z,101102.81
2019-04-30T10:07:19.582Z,101094.44
2019-04-30T10:09:50.432Z,101087.16
2019-04-30T10:12:19.590Z,101090.49
2019-04-30T10:14:46.833Z,101080.12
2019-04-30T10:17:15.596Z,101071.73
2019-04-30T10:19:42.493Z,101074.67
2019-04-30T10:22:09.419Z,101080.55
2019-04-30T10:24:36.956Z,101071.95
2019-04-30T10:27:06.927Z,101072.20
2019-04-30T10:29:32.876Z,101078.88
2019-04-30T10:31:59.961Z,101069.14
2019-04-30T10:34:26.934Z,101068.35
2019-04-30T10:36:53.746Z,101070.73
2019-04-30T10:39:21.698Z,101056.08
2019-04-30T10:41:48.754Z,101063.02
2019-04-30T10:44:15.915Z,101066.86
2019-04-30T10:46:42.941Z,101063.80
2019-04-30T10:49:10.515Z,101054.66
2019-04-30T10:51:38.816Z,101060.94
2019-04-30T10:54:06.043Z,101061.73
2019-04-30T10:56:32.729Z,101048.05
2019-04-30T10:58:59.851Z,101047.68
2019-04-30T11:01:29.055Z,101051.34
2019-04-30T11:03:55.871Z,101055.58
2019-04-30T11:06:22.506Z,101058.45
2019-04-30T11:08:49.668Z,101053.02
2019-04-30T11:11:16.615Z,101043.56
2019-04-30T11:13:43.758Z,101046.18
2019-04-30T11:16:13.269Z,101049.25
2019-04-30T11:18:39.415Z,101055.62
2019-04-30T11:21:09.451Z,101046.80
2019-04-30T11:23:36.629Z,101037.16
2019-04-30T11:26:04.197Z,101042.64
2019-04-30T11:28:31.638Z,101045.14
2019-04-30T11:31:06.641Z,101040.91
2019-04-30T11:33:34.053Z,101034.99
2019-04-30T11:36:02.988Z,101042.84
2019-04-30T11:38:30.746Z,101051.64
2019-04-30T11:40:58.448Z,101039.86
2019-04-30T11:43:25.454Z,101041.53
2019-04-30T11:46:18.719Z,101040.13
2019-04-30T11:48:45.596Z,101032.99
2019-04-30T11:51:12.444Z,101027.63
2019-04-30T11:53:39.416Z,101031.00
2019-04-30T11:56:06.478Z,101031.99
2019-04-30T11:58:34.412Z,101028.70
2019-04-30T12:01:01.567Z,101027.06
2019-04-30T12:03:30.297Z,101024.59
2019-04-30T12:05:58.919Z,101023.41
2019-04-30T12:08:29.393Z,101032.11
2019-04-30T12:11:01.137Z,101022.22
2019-04-30T12:13:29.360Z,101022.16
2019-04-30T12:15:56.388Z,101012.52
2019-04-30T12:18:23.332Z,101010.84
2019-04-30T12:20:50.799Z,101010.79
2019-04-30T12:23:19.365Z,101007.73
2019-04-30T12:25:46.350Z,101010.30
2019-04-30T12:28:13.258Z,101003.36
2019-04-30T12:30:40.760Z,101004.48
2019-04-30T12:33:09.074Z,101000.78
2019-04-30T12:35:36.449Z,100995.34
2019-04-30T12:38:03.639Z,101002.98
2019-04-30T12:40:32.388Z,100998.39
2019-04-30T12:42:59.879Z,100991.94
2019-04-30T12:45:26.897Z,100991.56
2019-04-30T12:47:55.472Z,100994.20
2019-04-30T12:50:40.758Z,100983.67
2019-04-30T12:53:10.363Z,100978.02
2019-04-30T12:55:44.788Z,100976.34
2019-04-30T12:58:11.729Z,100971.82
2019-04-30T13:00:39.227Z,100980.05
2019-04-30T13:03:06.042Z,100975.86
2019-04-30T13:05:32.859Z,100966.27
2019-04-30T13:08:00.598Z,100972.39
2019-04-30T13:10:28.672Z,100963.44
2019-04-30T13:12:56.762Z,100957.88
2019-04-30T13:15:23.811Z,100955.80
2019-04-30T13:17:50.676Z,100958.41
2019-04-30T13:20:21.431Z,100964.23
2019-04-30T13:22:46.617Z,100967.16
2019-04-30T13:25:13.676Z,100957.51
2019-04-30T13:27:42.653Z,100957.87
2019-04-30T13:30:11.559Z,100956.77
2019-04-30T13:32:40.650Z,100956.22
2019-04-30T13:35:09.281Z,100952.90
2019-04-30T13:37:38.969Z,100949.54
2019-04-30T13:40:10.858Z,100955.52
2019-04-30T13:42:42.406Z,100954.16
2019-04-30T13:45:09.846Z,100955.01
2019-04-30T13:47:36.654Z,100955.53
2019-04-30T13:50:04.624Z,100952.21
2019-04-30T13:52:31.775Z,100948.05
2019-04-30T13:54:58.780Z,100946.86
2019-04-30T13:57:25.804Z,100952.99
2019-04-30T13:59:52.755Z,100958.48
2019-04-30T14:02:19.666Z,100942.42
2019-04-30T14:05:03.919Z,100948.52
2019-04-30T14:07:50.827Z,100947.08
2019-04-30T14:10:19.564Z,100944.92
2019-04-30T14:12:48.627Z,100946.49
2019-04-30T14:15:15.761Z,100958.07
2019-04-30T14:17:42.915Z,100950.52
2019-04-30T14:20:09.981Z,100956.25
2019-04-30T14:22:36.904Z,100943.70
2019-04-30T14:25:03.956Z,100946.31
2019-04-30T14:27:30.874Z,100947.42
2019-04-30T14:29:59.313Z,100953.73
2019-04-30T14:32:26.280Z,100951.73
2019-04-30T14:34:53.073Z,100956.02
2019-04-30T14:37:20.227Z,100954.23
2019-04-30T14:39:47.524Z,100952.63
2019-04-30T14:42:15.336Z,100945.70
2019-04-30T14:44:44.236Z,100949.44
2019-04-30T14:47:14.403Z,100952.80
2019-04-30T14:49:43.539Z,100943.80
2019-04-30T14:52:10.502Z,100948.48
2019-04-30T14:54:39.373Z,100942.75
2019-04-30T14:57:08.905Z,100940.73
2019-04-30T14:59:53.935Z,100939.27
2019-04-30T15:02:25.343Z,100937.72
2019-04-30T15:04:52.370Z,100937.55
2019-04-30T15:07:20.844Z,100940.16
2019-04-30T15:09:47.790Z,100937.09
2019-04-30T15:12:14.942Z,100943.72
2019-04-30T15:14:42.002Z,100943.57
2019-04-30T15:17:09.148Z,100934.45
2019-04-30T15:19:36.108Z,100938.81
2019-04-30T15:22:04.009Z,100929.44
2019-04-30T15:24:39.138Z,100931.98
2019-04-30T15:27:06.340Z,100930.56
2019-04-30T15:29:33.617Z,100925.97
2019-04-30T15:32:00.849Z,100928.51
2019-04-30T15:34:29.379Z,100922.83
2019-04-30T15:36:56.382Z,100924.52
2019-04-30T15:39:30.662Z,100918.44
2019-04-30T15:41:57.596Z,100917.70
2019-04-30T15:44:24.511Z,100926.11
2019-04-30T15:46:51.331Z,100919.98
2019-04-30T15:49:18.382Z,100920.02
2019-04-30T15:51:46.498Z,100924.55
2019-04-30T15:54:13.410Z,100927.03
2019-04-30T15:56:42.351Z,100925.64
2019-04-30T15:59:10.804Z,100926.05
2019-04-30T16:01:38.665Z,100930.73
2019-04-30T16:04:06.195Z,100923.42
2019-04-30T16:06:33.863Z,100925.77
2019-04-30T16:09:03.675Z,100920.86
2019-04-30T16:11:34.249Z,100923.42
2019-04-30T16:14:19.415Z,100930.61
2019-04-30T16:16:48.836Z,100924.20
2019-04-30T16:19:15.936Z,100924.13
2019-04-30T16:21:42.873Z,100924.69
2019-04-30T16:24:09.844Z,100933.05
2019-04-30T16:26:47.310Z,100929.61
2019-04-30T16:29:06.212Z,100937.48
2019-04-30T16:31:33.354Z,100938.47
2019-04-30T16:34:00.068Z,100931.69
2019-04-30T16:36:29.032Z,100936.71
2019-04-30T16:38:55.933Z,100936.19
2019-04-30T16:41:31.575Z,100934.98
2019-04-30T16:43:52.057Z,100938.38
2019-04-30T16:46:19.095Z,100938.97
2019-04-30T16:48:46.554Z,100944.00
2019-04-30T16:51:14.216Z,100932.91
2019-04-30T16:53:41.250Z,100931.56
2019-04-30T16:56:08.557Z,100942.84
2019-04-30T16:58:54.201Z,100937.55
2019-04-30T17:01:21.143Z,100936.88
2019-04-30T17:03:50.523Z,100928.00
2019-04-30T17:06:19.673Z,100939.20
2019-04-30T17:08:49.480Z,100941.78
2019-04-30T17:11:21.434Z,100940.42
2019-04-30T17:13:50.207Z,100940.24
2019-04-30T17:16:19.548Z,100944.78
2019-04-30T17:18:46.659Z,100943.78
2019-04-30T17:21:13.290Z,100946.09
2019-04-30T17:23:40.367Z,100945.66
2019-04-30T17:26:07.222Z,100941.48
2019-04-30T17:28:34.043Z,100953.44
2019-04-30T17:31:02.317Z,100956.47
2019-04-30T17:33:30.439Z,100954.39
2019-04-30T17:35:57.129Z,100958.05
2019-04-30T17:38:24.299Z,100949.52
2019-04-30T17:40:51.185Z,100958.28
2019-04-30T17:43:18.069Z,100956.23
2019-04-30T17:45:46.472Z,100956.28
2019-04-30T17:48:13.407Z,100960.14
2019-04-30T17:50:40.448Z,100960.14
2019-04-30T17:53:09.104Z,100962.93
2019-04-30T17:55:39.144Z,100961.42
2019-04-30T17:58:06.106Z,100961.28
2019-04-30T18:00:34.542Z,100964.86
2019-04-30T18:03:01.684Z,100957.66
2019-04-30T18:05:29.234Z,100971.41
2019-04-30T18:07:56.254Z,100962.07
2019-04-30T18:10:23.586Z,100965.66
2019-04-30T18:12:50.408Z,100968.41
2019-04-30T18:15:19.507Z,100975.20
2019-04-30T18:17:49.114Z,100974.09
2019-04-30T18:20:19.173Z,100979.03
2019-04-30T18:22:51.263Z,100972.33
2019-04-30T18:25:29.079Z,100980.52
2019-04-30T18:28:03.075Z,100985.88
2019-04-30T18:30:31.962Z,100980.68
2019-04-30T18:32:59.199Z,100983.70
2019-04-30T18:35:28.624Z,100989.50
2019-04-30T18:37:55.568Z,100983.84
2019-04-30T18:40:22.649Z,100987.39
2019-04-30T18:42:50.025Z,100988.22
2019-04-30T18:45:17.003Z,100991.27
2019-04-30T18:47:44.611Z,100991.70
2019-04-30T18:50:11.940Z,100998.89
2019-04-30T18:52:39.252Z,100996.52
2019-04-30T18:55:06.405Z,100993.30
2019-04-30T18:57:33.430Z,101001.01
2019-04-30T19:00:01.523Z,101000.42
2019-04-30T19:02:30.460Z,101002.95
2019-04-30T19:04:59.442Z,101003.83
2019-04-30T19:07:34.441Z,101000.25
2019-04-30T19:10:03.270Z,101004.31
2019-04-30T19:12:39.032Z,100997.77
2019-04-30T19:15:08.002Z,101006.09
2019-04-30T19:17:39.826Z,101001.48
2019-04-30T19:20:20.920Z,101008.25
2019-04-30T19:22:47.707Z,101008.12
2019-04-30T19:25:16.159Z,101009.05
2019-04-30T19:27:42.975Z,101007.38
2019-04-30T19:30:10.269Z,101005.41
2019-04-30T19:32:39.084Z,101007.52
2019-04-30T19:35:06.683Z,101011.61
2019-04-30T19:37:33.657Z,101015.11
2019-04-30T19:40:00.811Z,101017.52
2019-04-30T19:42:29.524Z,101019.32
2019-04-30T19:45:05.197Z,101014.14
2019-04-30T19:47:26.941Z,101011.97
2019-04-30T19:49:54.495Z,101012.92
2019-04-30T19:52:21.744Z,101014.37
2019-04-30T19:54:49.076Z,101015.40
2019-04-30T19:57:16.052Z,101017.20
2019-04-30T19:59:43.608Z,101016.51
2019-04-30T20:02:11.376Z,101012.30
2019-04-30T20:04:40.393Z,101015.25
2019-04-30T20:07:08.818Z,101015.22
2019-04-30T20:09:35.907Z,101017.16
2019-04-30T20:12:02.974Z,101023.95
2019-04-30T20:14:29.999Z,101019.87
2019-04-30T20:16:59.025Z,101018.48
2019-04-30T20:19:26.066Z,101019.91
2019-04-30T20:21:54.079Z,101021.73
2019-04-30T20:24:21.365Z,101015.87
2019-04-30T20:26:48.772Z,101016.72
2019-04-30T20:29:18.587Z,101018.89
2019-04-30T20:31:45.579Z,101023.66
2019-04-30T20:34:12.437Z,101019.28
2019-04-30T20:36:41.059Z,101019.55
2019-04-30T20:39:12.870Z,101012.84
2019-04-30T20:41:40.263Z,101014.61
2019-04-30T20:44:08.728Z,101018.66
2019-04-30T20:46:36.327Z,101024.87
2019-04-30T20:49:03.335Z,101022.75
2019-04-30T20:51:30.366Z,101018.48
2019-04-30T20:53:59.169Z,101019.08
2019-04-30T20:56:26.611Z,101021.42
2019-04-30T20:58:57.761Z,101012.05
2019-04-30T21:01:22.371Z,101016.94
2019-04-30T21:03:49.291Z,101012.97
2019-04-30T21:06:16.177Z,101020.45
2019-04-30T21:08:43.181Z,101017.95
2019-04-30T21:11:09.934Z,101020.58
2019-04-30T21:13:36.691Z,101017.50
2019-04-30T21:16:03.673Z,101011.09
2019-04-30T21:18:32.486Z,101015.32
2019-04-30T21:20:59.710Z,101011.36
2019-04-30T21:23:26.918Z,101021.13
2019-04-30T21:25:54.117Z,101015.72
2019-04-30T21:28:21.111Z,101014.02
2019-04-30T21:30:48.082Z,101024.23
2019-04-30T21:33:16.747Z,101015.20
2019-04-30T21:35:45.636Z,101005.95
2019-04-30T21:38:12.680Z,101016.82
2019-04-30T21:40:39.991Z,101012.47
2019-04-30T21:43:07.078Z,101005.56
2019-04-30T21:45:34.143Z,101003.58
2019-04-30T21:48:01.526Z,101004.58
2019-04-30T21:50:29.672Z,101002.30
2019-04-30T21:52:56.878Z,101002.87
2019-04-30T21:55:24.268Z,100992.83
2019-04-30T21:57:51.219Z,100992.97
2019-04-30T22:00:37.002Z,100988.52
2019-04-30T22:03:09.211Z,100998.21
2019-04-30T22:05:35.915Z,100997.84
2019-04-30T22:08:03.750Z,101000.85
2019-04-30T22:10:30.434Z,101008.53
2019-04-30T22:12:58.643Z,101000.37
2019-04-30T22:15:26.665Z,100995.24
2019-04-30T22:17:54.527Z,100993.76
2019-04-30T22:20:21.683Z,100993.36
2019-04-30T22:22:48.974Z,100992.92
2019-04-30T22:25:17.112Z,100994.08
2019-04-30T22:27:45.393Z,100985.16
2019-04-30T22:30:12.848Z,100989.08
2019-04-30T22:32:39.787Z,100984.19
2019-04-30T22:35:08.586Z,100986.50
2019-04-30T22:37:35.428Z,100982.25
2019-04-30T22:40:04.349Z,100987.49
2019-04-30T22:42:32.190Z,100987.34
2019-04-30T22:44:59.849Z,100982.49
2019-04-30T22:47:27.305Z,100976.56
2019-04-30T22:49:54.153Z,100975.13
2019-04-30T22:52:21.939Z,100975.52
2019-04-30T22:54:48.993Z,100968.38
2019-04-30T22:57:15.939Z,100962.60
2019-04-30T22:59:49.694Z,100961.59
2019-04-30T23:02:13.999Z,100958.56
2019-04-30T23:04:45.721Z,100956.31
2019-04-30T23:07:12.813Z,100951.48
2019-04-30T23:09:39.851Z,100953.30
2019-04-30T23:12:06.691Z,100952.43
2019-04-30T23:14:33.742Z,100949.44
2019-04-30T23:17:00.487Z,100948.60
2019-04-30T23:19:27.424Z,100945.53
2019-04-30T23:21:54.516Z,100934.88
2019-04-30T23:24:21.449Z,100939.78
2019-04-30T23:26:48.471Z,100933.98
2019-04-30T23:29:16.301Z,100933.08
2019-04-30T23:31:43.487Z,100928.02
2019-04-30T23:34:17.857Z,100927.45
2019-04-30T23:36:38.829Z,100920.73
2019-04-30T23:39:05.840Z,100918.95
2019-04-30T23:41:32.604Z,100920.17
2019-04-30T23:43:59.289Z,100912.27
2019-04-30T23:46:26.292Z,100911.37
2019-04-30T23:48:53.857Z,100907.02
2019-04-30T23:51:21.306Z,100910.04
2019-04-30T23:53:48.359Z,100906.12
2019-04-30T23:56:15.503Z,100912.39
2019-04-30T23:58:42.453Z,100901.72
